createdAt,value
2023-03-14T00:00:13.839Z,1.60
2023-03-14T00:02:41.596Z,1.70
2023-03-14T00:05:10.017Z,1.80
2023-03-14T00:07:38.914Z,2.90
2023-03-14T00:10:08.895Z,5.30
2023-03-14T00:12:35.956Z,2.03
2023-03-14T00:15:04.566Z,1.67
2023-03-14T00:17:32.007Z,2.17
2023-03-14T00:20:05.153Z,1.90
2023-03-14T00:22:32.866Z,1.70
2023-03-14T00:24:59.795Z,3.00
2023-03-14T00:27:26.784Z,1.73
2023-03-14T00:29:53.719Z,2.10
2023-03-14T00:32:20.967Z,3.37
2023-03-14T00:34:47.883Z,2.10
2023-03-14T00:37:17.339Z,1.93
2023-03-14T00:39:44.238Z,2.00
2023-03-14T00:42:11.159Z,1.90
2023-03-14T00:44:38.297Z,2.00
2023-03-14T00:47:07.840Z,2.07
2023-03-14T00:49:34.954Z,1.93
2023-03-14T00:52:01.953Z,2.33
2023-03-14T00:54:28.954Z,2.10
2023-03-14T00:56:56.612Z,2.20
2023-03-14T00:59:23.620Z,1.60
2023-03-14T01:01:50.581Z,1.93
2023-03-14T01:04:17.615Z,1.80
2023-03-14T01:06:44.564Z,1.57
2023-03-14T01:09:11.637Z,1.47
2023-03-14T01:11:38.629Z,2.00
2023-03-14T01:14:06.394Z,1.60
2023-03-14T01:16:36.158Z,1.80
2023-03-14T01:19:04.100Z,1.70
2023-03-14T01:21:33.461Z,1.50
2023-03-14T01:24:02.126Z,1.70
2023-03-14T01:26:31.652Z,1.73
2023-03-14T01:28:59.330Z,1.97
2023-03-14T01:31:28.323Z,1.60
2023-03-14T01:33:55.529Z,1.70
2023-03-14T01:36:22.626Z,1.33
2023-03-14T01:38:49.910Z,1.47
2023-03-14T01:41:22.959Z,1.60
2023-03-14T01:43:51.362Z,2.30
2023-03-14T01:46:26.667Z,2.63
2023-03-14T01:49:12.184Z,2.57
2023-03-14T01:51:52.556Z,2.43
2023-03-14T01:54:26.442Z,1.70
2023-03-14T01:56:59.358Z,2.33
2023-03-14T01:59:27.308Z,2.00
2023-03-14T02:01:56.640Z,3.47
2023-03-14T02:04:26.329Z,2.03
2023-03-14T02:07:01.338Z,1.97
2023-03-14T02:09:33.035Z,1.53
2023-03-14T02:12:01.283Z,1.47
2023-03-14T02:14:49.363Z,2.00
2023-03-14T02:17:30.134Z,1.47
2023-03-14T02:20:15.940Z,1.67
2023-03-14T02:22:47.853Z,2.10
2023-03-14T02:25:51.917Z,1.20
2023-03-14T02:28:21.828Z,2.10
2023-03-14T02:30:51.896Z,2.20
2023-03-14T02:33:21.274Z,1.87
2023-03-14T02:36:00.099Z,1.97
2023-03-14T02:38:48.430Z,1.50
2023-03-14T02:41:16.706Z,2.10
2023-03-14T02:43:49.868Z,1.77
2023-03-14T02:46:22.322Z,3.30
2023-03-14T02:48:49.331Z,2.10
2023-03-14T02:51:17.695Z,2.43
2023-03-14T02:53:47.553Z,1.93
2023-03-14T02:56:15.242Z,1.60
2023-03-14T02:58:42.223Z,3.27
2023-03-14T03:01:20.239Z,3.93
2023-03-14T03:03:47.267Z,3.20
2023-03-14T03:06:14.170Z,2.73
2023-03-14T03:08:41.167Z,1.80
2023-03-14T03:11:08.387Z,2.10
2023-03-14T03:13:36.275Z,1.83
2023-03-14T03:16:05.634Z,2.30
2023-03-14T03:18:34.873Z,1.70
2023-03-14T03:21:06.778Z,2.27
2023-03-14T03:23:33.757Z,2.33
2023-03-14T03:26:00.709Z,2.03
2023-03-14T03:28:27.735Z,2.67
2023-03-14T03:30:55.315Z,2.77
2023-03-14T03:33:24.646Z,3.40
2023-03-14T03:35:53.286Z,2.30
2023-03-14T03:38:27.237Z,1.90
2023-03-14T03:40:55.307Z,1.80
2023-03-14T03:43:25.486Z,1.90
2023-03-14T03:45:52.871Z,2.30
2023-03-14T03:48:21.106Z,2.23
2023-03-14T03:50:48.851Z,1.53
2023-03-14T03:53:32.394Z,2.23
2023-03-14T03:56:00.860Z,1.80
2023-03-14T03:58:27.798Z,2.07
2023-03-14T04:00:55.380Z,1.73
2023-03-14T04:03:24.554Z,2.17
2023-03-14T04:06:04.051Z,1.80
2023-03-14T04:08:32.863Z,1.60
2023-03-14T04:11:01.376Z,1.57
2023-03-14T04:13:46.800Z,1.90
2023-03-14T04:16:18.374Z,1.77
2023-03-14T04:18:45.461Z,1.70
2023-03-14T04:21:12.531Z,1.97
2023-03-14T04:23:48.897Z,2.67
2023-03-14T04:26:17.055Z,1.90
2023-03-14T04:28:44.445Z,3.40
2023-03-14T04:31:14.045Z,1.90
2023-03-14T04:33:43.011Z,1.97
2023-03-14T04:36:13.038Z,2.27
2023-03-14T04:38:40.371Z,1.50
2023-03-14T04:41:08.469Z,1.73
2023-03-14T04:43:36.252Z,1.60
2023-03-14T04:46:08.290Z,2.60
2023-03-14T04:48:35.598Z,1.93
2023-03-14T04:51:02.777Z,1.80
2023-03-14T04:53:35.406Z,2.20
2023-03-14T04:56:06.021Z,2.60
2023-03-14T04:58:38.695Z,1.67
2023-03-14T05:01:07.663Z,1.27
2023-03-14T05:04:03.144Z,1.23
2023-03-14T05:06:48.494Z,1.33
2023-03-14T05:09:41.568Z,1.10
2023-03-14T05:12:23.604Z,1.40
2023-03-14T05:15:22.941Z,2.77
2023-03-14T05:18:10.131Z,1.20
2023-03-14T05:21:05.195Z,1.03
2023-03-14T05:23:47.724Z,1.30
2023-03-14T05:26:28.224Z,1.00
2023-03-14T05:29:21.382Z,1.03
2023-03-14T05:32:04.231Z,0.90
2023-03-14T05:34:49.577Z,0.93
2023-03-14T05:37:45.886Z,1.50
2023-03-14T05:40:31.634Z,1.07
2023-03-14T05:43:17.545Z,1.00
2023-03-14T05:45:54.405Z,1.10
2023-03-14T05:48:27.162Z,1.00
2023-03-14T05:51:09.323Z,0.90
2023-03-14T05:53:53.667Z,0.87
2023-03-14T05:56:39.367Z,0.90
2023-03-14T05:59:15.930Z,1.03
2023-03-14T06:02:00.516Z,0.90
2023-03-14T06:04:30.892Z,0.90
2023-03-14T06:07:00.397Z,0.80
2023-03-14T06:09:27.559Z,0.60
2023-03-14T06:11:57.693Z,1.10
2023-03-14T06:14:25.087Z,1.13
2023-03-14T06:16:53.651Z,2.47
2023-03-14T06:19:22.415Z,1.50
2023-03-14T06:21:49.417Z,4.50
2023-03-14T06:24:16.689Z,2.53
2023-03-14T06:26:47.535Z,1.10
2023-03-14T06:29:15.299Z,2.40
2023-03-14T06:31:42.365Z,1.80
2023-03-14T06:34:10.567Z,1.80
2023-03-14T06:36:37.606Z,1.30
2023-03-14T06:39:04.833Z,0.87
2023-03-14T06:41:34.592Z,0.87
2023-03-14T06:44:01.916Z,1.40
2023-03-14T06:46:29.079Z,1.20
2023-03-14T06:48:56.102Z,1.10
2023-03-14T06:51:23.483Z,0.93
2023-03-14T06:53:50.877Z,1.13
2023-03-14T06:56:20.588Z,1.30
2023-03-14T06:58:50.262Z,1.43
2023-03-14T07:01:26.020Z,1.47
2023-03-14T07:03:54.706Z,1.40
2023-03-14T07:06:23.027Z,1.70
2023-03-14T07:08:50.304Z,1.40
2023-03-14T07:11:18.179Z,1.40
2023-03-14T07:13:45.586Z,1.57
2023-03-14T07:16:12.977Z,1.70
2023-03-14T07:18:40.001Z,1.67
2023-03-14T07:21:09.970Z,1.70
2023-03-14T07:23:38.005Z,1.97
2023-03-14T07:26:05.328Z,1.60
2023-03-14T07:28:33.938Z,1.47
2023-03-14T07:31:14.360Z,1.77
2023-03-14T07:33:42.200Z,1.87
2023-03-14T07:36:09.661Z,1.90
2023-03-14T07:38:36.821Z,2.10
2023-03-14T07:41:12.682Z,2.00
2023-03-14T07:43:50.312Z,2.50
2023-03-14T07:46:18.494Z,1.73
2023-03-14T07:48:45.568Z,1.50
2023-03-14T07:51:12.508Z,1.63
2023-03-14T07:53:40.343Z,1.87
2023-03-14T07:56:07.572Z,1.50
2023-03-14T07:58:34.509Z,1.20
2023-03-14T08:01:01.512Z,1.60
2023-03-14T08:03:28.720Z,1.30
2023-03-14T08:05:55.662Z,1.50
2023-03-14T08:08:22.606Z,1.40
2023-03-14T08:10:49.544Z,1.50
2023-03-14T08:13:16.952Z,1.80
2023-03-14T08:15:43.930Z,1.30
2023-03-14T08:18:11.034Z,1.50
2023-03-14T08:20:38.392Z,1.20
2023-03-14T08:23:05.503Z,1.53
2023-03-14T08:25:33.251Z,1.20
2023-03-14T08:28:00.339Z,1.20
2023-03-14T08:30:27.434Z,1.30
2023-03-14T08:32:54.526Z,1.40
2023-03-14T08:35:21.595Z,1.67
2023-03-14T08:37:48.587Z,1.30
2023-03-14T08:40:16.509Z,1.50
2023-03-14T08:42:43.761Z,1.63
2023-03-14T08:45:13.897Z,1.40
2023-03-14T08:47:40.863Z,1.73
2023-03-14T08:50:08.689Z,1.40
2023-03-14T08:52:36.073Z,1.90
2023-03-14T08:55:03.044Z,1.30
2023-03-14T08:57:29.942Z,1.73
2023-03-14T08:59:58.049Z,1.30
2023-03-14T09:02:26.635Z,1.47
2023-03-14T09:04:54.438Z,1.40
2023-03-14T09:07:21.590Z,1.53
2023-03-14T09:09:48.700Z,1.90
2023-03-14T09:12:15.730Z,1.57
2023-03-14T09:14:42.691Z,1.60
2023-03-14T09:17:09.644Z,1.70
2023-03-14T09:19:36.721Z,1.90
2023-03-14T09:22:04.105Z,1.90
2023-03-14T09:24:31.089Z,1.80
2023-03-14T09:26:58.274Z,1.90
2023-03-14T09:29:25.528Z,1.90
2023-03-14T09:31:52.599Z,1.67
2023-03-14T09:34:19.929Z,2.10
2023-03-14T09:36:46.824Z,1.53
2023-03-14T09:39:13.989Z,1.40
2023-03-14T09:41:44.522Z,1.47
2023-03-14T09:44:46.630Z,1.40
2023-03-14T09:47:15.414Z,1.70
2023-03-14T09:49:43.013Z,1.50
2023-03-14T09:52:17.844Z,1.90
2023-03-14T09:54:53.900Z,1.80
2023-03-14T09:57:25.016Z,1.73
2023-03-14T09:59:55.726Z,2.10
2023-03-14T10:02:32.010Z,1.97
2023-03-14T10:04:59.204Z,1.57
2023-03-14T10:07:31.402Z,1.37
2023-03-14T10:09:59.855Z,1.50
2023-03-14T10:12:38.071Z,1.80
2023-03-14T10:15:10.765Z,1.47
2023-03-14T10:17:56.142Z,1.60
2023-03-14T10:20:36.641Z,1.40
2023-03-14T10:23:14.206Z,1.60
2023-03-14T10:26:02.797Z,1.30
2023-03-14T10:28:34.757Z,0.90
2023-03-14T10:31:02.158Z,0.90
2023-03-14T10:33:32.662Z,1.00
2023-03-14T10:36:01.352Z,0.80
2023-03-14T10:38:37.127Z,1.20
2023-03-14T10:41:20.551Z,0.70
2023-03-14T10:43:52.310Z,0.80
2023-03-14T10:46:20.609Z,0.73
2023-03-14T10:49:07.612Z,1.10
2023-03-14T10:51:35.052Z,0.77
2023-03-14T10:54:02.040Z,0.80
2023-03-14T10:56:35.809Z,0.80
2023-03-14T10:59:04.272Z,0.80
2023-03-14T11:01:44.442Z,1.00
2023-03-14T11:04:36.834Z,0.93
2023-03-14T11:07:28.309Z,1.20
2023-03-14T11:09:58.097Z,0.83
2023-03-14T11:12:48.736Z,0.80
2023-03-14T11:15:43.886Z,0.93
2023-03-14T11:18:23.231Z,0.90
2023-03-14T11:21:23.622Z,0.87
2023-03-14T11:24:11.642Z,0.80
2023-03-14T11:26:51.291Z,1.10
2023-03-14T11:29:42.008Z,1.00
2023-03-14T11:32:15.041Z,1.13
2023-03-14T11:34:54.190Z,1.20
2023-03-14T11:37:45.333Z,1.40
2023-03-14T11:40:19.230Z,1.17
2023-03-14T11:42:55.888Z,1.10
2023-03-14T11:45:38.366Z,1.30
2023-03-14T11:48:40.782Z,1.10
2023-03-14T11:51:29.490Z,0.97
2023-03-14T11:54:23.415Z,1.20
2023-03-14T11:57:05.504Z,1.10
2023-03-14T11:59:52.137Z,1.17
2023-03-14T12:02:24.244Z,1.00
2023-03-14T12:05:15.763Z,1.13
2023-03-14T12:07:45.680Z,1.30
2023-03-14T12:10:12.857Z,1.20
2023-03-14T12:12:40.207Z,1.17
2023-03-14T12:15:18.778Z,1.07
2023-03-14T12:17:47.372Z,1.60
2023-03-14T12:20:23.587Z,1.27
2023-03-14T12:23:13.020Z,1.00
2023-03-14T12:25:40.118Z,1.30
2023-03-14T12:28:32.956Z,1.40
2023-03-14T12:31:32.315Z,1.53
2023-03-14T12:34:04.498Z,2.60
2023-03-14T12:36:52.543Z,2.67
2023-03-14T12:39:51.104Z,1.90
2023-03-14T12:42:45.391Z,2.30
2023-03-14T12:45:23.123Z,3.23
2023-03-14T12:47:54.604Z,2.70
2023-03-14T12:50:27.094Z,2.50
2023-03-14T12:53:19.734Z,2.43
2023-03-14T12:56:12.106Z,2.20
2023-03-14T12:58:43.199Z,2.17
2023-03-14T13:01:20.572Z,2.20
2023-03-14T13:03:56.474Z,2.33
2023-03-14T13:06:45.330Z,1.80
2023-03-14T13:09:30.284Z,1.83
2023-03-14T13:12:03.422Z,1.87
2023-03-14T13:14:32.065Z,2.03
2023-03-14T13:17:19.278Z,1.93
2023-03-14T13:20:05.968Z,2.17
2023-03-14T13:22:35.799Z,2.03
2023-03-14T13:25:10.823Z,2.73
2023-03-14T13:27:38.725Z,3.50
2023-03-14T13:30:21.022Z,2.67
2023-03-14T13:32:49.651Z,2.33
2023-03-14T13:35:19.501Z,2.57
2023-03-14T13:37:46.511Z,2.63
2023-03-14T13:40:33.593Z,3.10
2023-03-14T13:43:04.315Z,2.10
2023-03-14T13:45:31.823Z,2.13
2023-03-14T13:47:58.834Z,2.60
2023-03-14T13:50:25.812Z,2.77
2023-03-14T13:52:59.517Z,3.70
2023-03-14T13:55:26.431Z,2.40
2023-03-14T13:57:58.428Z,2.57
2023-03-14T14:00:28.208Z,2.77
2023-03-14T14:02:57.317Z,2.50
2023-03-14T14:05:27.840Z,2.50
2023-03-14T14:07:55.517Z,3.23
2023-03-14T14:10:22.761Z,3.40
2023-03-14T14:12:59.623Z,4.10
2023-03-14T14:15:33.462Z,4.00
2023-03-14T14:18:04.423Z,3.47
2023-03-14T14:20:35.905Z,3.60
2023-03-14T14:23:20.396Z,3.17
2023-03-14T14:25:50.229Z,4.07
2023-03-14T14:28:30.133Z,2.83
2023-03-14T14:31:20.992Z,3.00
2023-03-14T14:33:58.299Z,2.97
2023-03-14T14:36:45.683Z,3.13
2023-03-14T14:39:20.621Z,4.40
2023-03-14T14:41:50.822Z,3.53
2023-03-14T14:44:33.502Z,3.13
2023-03-14T14:47:03.100Z,3.87
2023-03-14T14:49:35.204Z,2.20
2023-03-14T14:52:41.748Z,3.83
2023-03-14T14:55:19.326Z,3.37
2023-03-14T14:57:55.821Z,3.47
2023-03-14T15:00:26.415Z,4.70
2023-03-14T15:02:56.727Z,3.03
2023-03-14T15:05:26.990Z,3.10
2023-03-14T15:07:54.708Z,2.97
2023-03-14T15:10:24.474Z,3.90
2023-03-14T15:12:51.971Z,3.03
2023-03-14T15:15:19.509Z,2.90
2023-03-14T15:17:46.524Z,2.70
2023-03-14T15:20:16.023Z,2.70
2023-03-14T15:22:43.465Z,2.67
2023-03-14T15:25:18.610Z,3.00
2023-03-14T15:27:54.125Z,3.10
2023-03-14T15:30:21.179Z,2.77
2023-03-14T15:32:48.490Z,3.10
2023-03-14T15:35:17.695Z,3.00
2023-03-14T15:37:45.771Z,2.67
2023-03-14T15:40:15.148Z,2.93
2023-03-14T15:42:42.420Z,2.30
2023-03-14T15:45:10.152Z,2.50
2023-03-14T15:47:37.228Z,2.13
2023-03-14T15:50:05.129Z,2.13
2023-03-14T15:52:32.168Z,2.10
2023-03-14T15:54:59.175Z,2.07
2023-03-14T15:57:26.066Z,1.40
2023-03-14T15:59:53.387Z,2.17
2023-03-14T16:02:20.330Z,2.17
2023-03-14T16:04:47.260Z,2.20
2023-03-14T16:07:14.195Z,1.90
2023-03-14T16:09:41.153Z,2.00
2023-03-14T16:12:09.749Z,2.40
2023-03-14T16:14:36.863Z,2.50
2023-03-14T16:17:03.879Z,2.47
2023-03-14T16:19:32.008Z,2.30
2023-03-14T16:21:58.955Z,2.03
2023-03-14T16:24:25.909Z,2.00
2023-03-14T16:26:52.948Z,2.40
2023-03-14T16:29:20.008Z,2.07
2023-03-14T16:31:47.449Z,2.10
2023-03-14T16:34:14.595Z,2.20
2023-03-14T16:36:41.617Z,2.33
2023-03-14T16:39:08.615Z,2.47
2023-03-14T16:41:35.642Z,2.23
2023-03-14T16:44:02.713Z,2.37
2023-03-14T16:46:30.633Z,2.20
2023-03-14T16:48:57.985Z,1.90
2023-03-14T16:51:25.246Z,2.60
2023-03-14T16:53:52.233Z,2.40
2023-03-14T16:56:19.333Z,2.30
2023-03-14T16:58:47.251Z,2.03
2023-03-14T17:01:18.166Z,2.03
2023-03-14T17:03:48.003Z,2.47
2023-03-14T17:06:24.521Z,2.10
2023-03-14T17:08:53.099Z,1.63
2023-03-14T17:11:20.230Z,1.53
2023-03-14T17:13:47.182Z,2.00
2023-03-14T17:16:14.281Z,2.30
2023-03-14T17:18:41.295Z,1.90
2023-03-14T17:21:08.807Z,1.97
2023-03-14T17:23:36.096Z,1.80
2023-03-14T17:26:03.436Z,2.60
2023-03-14T17:28:30.696Z,1.77
2023-03-14T17:31:16.845Z,2.00
2023-03-14T17:33:44.851Z,2.03
2023-03-14T17:36:13.849Z,2.10
2023-03-14T17:38:41.006Z,1.90
2023-03-14T17:41:13.327Z,2.50
2023-03-14T17:43:40.992Z,2.47
2023-03-14T17:46:15.119Z,2.27
2023-03-14T17:48:46.357Z,2.00
2023-03-14T17:51:14.895Z,2.30
2023-03-14T17:53:42.143Z,2.27
2023-03-14T17:56:09.787Z,2.00
2023-03-14T17:58:38.047Z,2.73
2023-03-14T18:01:10.169Z,2.33
2023-03-14T18:03:37.254Z,1.97
2023-03-14T18:06:09.915Z,2.40
2023-03-14T18:08:38.365Z,1.80
2023-03-14T18:11:07.112Z,2.23
2023-03-14T18:13:34.452Z,3.53
2023-03-14T18:16:01.859Z,2.60
2023-03-14T18:18:30.013Z,2.60
2023-03-14T18:20:56.932Z,3.50
2023-03-14T18:23:24.296Z,2.63
2023-03-14T18:25:51.745Z,2.73
2023-03-14T18:28:21.100Z,2.57
2023-03-14T18:30:52.242Z,2.63
2023-03-14T18:33:22.200Z,2.47
2023-03-14T18:35:52.830Z,2.77
2023-03-14T18:38:20.453Z,3.23
2023-03-14T18:40:47.366Z,2.37
2023-03-14T18:43:14.287Z,2.23
2023-03-14T18:45:41.311Z,1.97
2023-03-14T18:48:08.296Z,2.80
2023-03-14T18:50:35.256Z,2.47
2023-03-14T18:53:02.193Z,2.77
2023-03-14T18:55:29.228Z,2.60
2023-03-14T18:57:56.573Z,2.33
2023-03-14T19:00:26.558Z,3.27
2023-03-14T19:02:53.822Z,3.37
2023-03-14T19:05:20.744Z,2.40
2023-03-14T19:07:47.664Z,2.60
2023-03-14T19:10:14.683Z,2.73
2023-03-14T19:12:41.692Z,2.77
2023-03-14T19:15:09.553Z,4.10
2023-03-14T19:17:36.897Z,2.87
2023-03-14T19:20:04.045Z,3.20
2023-03-14T19:22:32.443Z,3.63
2023-03-14T19:24:59.415Z,3.40
2023-03-14T19:27:26.417Z,3.83
2023-03-14T19:29:53.503Z,2.73
2023-03-14T19:32:20.829Z,4.37
2023-03-14T19:34:47.861Z,3.37
2023-03-14T19:37:14.860Z,3.97
2023-03-14T19:39:45.758Z,2.93
2023-03-14T19:42:13.196Z,3.00
2023-03-14T19:44:40.696Z,4.10
2023-03-14T19:47:08.014Z,3.50
2023-03-14T19:49:35.062Z,2.63
2023-03-14T19:52:02.235Z,2.90
2023-03-14T19:54:29.408Z,3.07
2023-03-14T19:56:56.491Z,4.40
2023-03-14T19:59:23.430Z,4.03
2023-03-14T20:01:52.571Z,3.43
2023-03-14T20:04:19.654Z,4.13
2023-03-14T20:06:46.658Z,4.07
2023-03-14T20:09:13.630Z,3.60
2023-03-14T20:11:40.911Z,3.10
2023-03-14T20:14:09.328Z,4.00
2023-03-14T20:16:39.618Z,3.13
2023-03-14T20:19:08.534Z,2.37
2023-03-14T20:21:36.221Z,3.30
2023-03-14T20:24:04.232Z,2.60
2023-03-14T20:26:34.644Z,2.50
2023-03-14T20:29:01.736Z,2.43
2023-03-14T20:31:28.760Z,3.17
2023-03-14T20:33:55.825Z,2.73
2023-03-14T20:36:22.787Z,2.10
2023-03-14T20:38:49.869Z,3.20
2023-03-14T20:41:16.923Z,3.10
2023-03-14T20:43:43.921Z,3.20
2023-03-14T20:46:14.037Z,3.90
2023-03-14T20:48:41.127Z,4.93
2023-03-14T20:51:08.088Z,3.80
2023-03-14T20:53:35.175Z,3.57
2023-03-14T20:56:02.145Z,4.30
2023-03-14T20:58:29.068Z,3.13
2023-03-14T21:00:57.214Z,2.60
2023-03-14T21:03:24.875Z,2.57
2023-03-14T21:05:52.795Z,2.80
2023-03-14T21:08:22.773Z,2.40
2023-03-14T21:10:51.245Z,2.30
2023-03-14T21:13:18.570Z,2.10
2023-03-14T21:15:45.998Z,2.57
2023-03-14T21:18:12.998Z,2.80
2023-03-14T21:20:41.344Z,3.00
2023-03-14T21:23:09.419Z,2.60
2023-03-14T21:25:36.407Z,2.23
2023-03-14T21:28:04.287Z,2.30
2023-03-14T21:30:33.566Z,2.60
2023-03-14T21:33:00.727Z,2.47
2023-03-14T21:35:27.794Z,2.40
2023-03-14T21:37:54.801Z,2.57
2023-03-14T21:40:22.454Z,2.70
2023-03-14T21:42:49.479Z,2.93
2023-03-14T21:45:16.796Z,2.87
2023-03-14T21:47:47.478Z,2.37
2023-03-14T21:50:15.196Z,2.60
2023-03-14T21:52:46.284Z,2.80
2023-03-14T21:55:17.475Z,2.13
2023-03-14T21:57:48.757Z,2.80
2023-03-14T22:00:17.785Z,2.70
2023-03-14T22:02:58.117Z,2.43
2023-03-14T22:05:30.458Z,2.30
2023-03-14T22:07:57.500Z,2.80
2023-03-14T22:10:24.727Z,2.90
2023-03-14T22:12:51.820Z,8.33
2023-03-14T22:15:18.839Z,3.43
2023-03-14T22:17:45.729Z,10.37
2023-03-14T22:20:13.918Z,4.43
2023-03-14T22:22:41.307Z,5.03
2023-03-14T22:25:08.820Z,4.33
2023-03-14T22:27:35.868Z,3.57
2023-03-14T22:30:03.414Z,4.23
2023-03-14T22:32:30.449Z,4.30
2023-03-14T22:34:57.384Z,3.63
2023-03-14T22:37:25.573Z,3.47
2023-03-14T22:39:52.631Z,3.30
2023-03-14T22:42:19.810Z,3.40
2023-03-14T22:44:46.792Z,3.70
2023-03-14T22:47:13.773Z,3.07
2023-03-14T22:49:40.938Z,3.50
2023-03-14T22:52:07.913Z,3.03
2023-03-14T22:54:34.936Z,3.17
2023-03-14T22:57:01.831Z,3.20
2023-03-14T22:59:28.812Z,2.70
2023-03-14T23:01:55.813Z,3.13
2023-03-14T23:04:22.964Z,3.30
2023-03-14T23:06:49.906Z,3.07
2023-03-14T23:09:17.588Z,3.13
2023-03-14T23:11:44.653Z,3.07
2023-03-14T23:14:11.567Z,2.47
2023-03-14T23:16:40.903Z,2.80
2023-03-14T23:19:09.852Z,2.73
2023-03-14T23:21:37.138Z,2.47
2023-03-14T23:24:05.998Z,2.80
2023-03-14T23:26:35.750Z,2.67
2023-03-14T23:29:07.179Z,3.00
2023-03-14T23:31:34.330Z,2.20
2023-03-14T23:34:01.353Z,2.83
2023-03-14T23:36:28.402Z,2.80
2023-03-14T23:38:55.358Z,2.40
2023-03-14T23:41:22.617Z,2.73
2023-03-14T23:43:49.665Z,2.10
2023-03-14T23:46:17.302Z,2.83
2023-03-14T23:48:46.970Z,2.63
2023-03-14T23:51:15.141Z,3.10
2023-03-14T23:53:42.479Z,2.77
2023-03-14T23:56:11.691Z,2.50
2023-03-14T23:58:38.693Z,3.70
